sensor_id;sensor_type;location;lat;lon;timestamp;temperature;humidity
6988;DHT22;3534;49.960;8.018;2024-01-30T00:00:19;5.50;99.90
6988;DHT22;3534;49.960;8.018;2024-01-30T00:02:46;5.50;99.90
6988;DHT22;3534;49.960;8.018;2024-01-30T00:05:13;5.50;99.90
6988;DHT22;3534;49.960;8.018;2024-01-30T00:07:40;5.50;99.90
6988;DHT22;3534;49.960;8.018;2024-01-30T00:10:07;5.50;99.90
6988;DHT22;3534;49.960;8.018;2024-01-30T00:12:34;5.50;99.90
6988;DHT22;3534;49.960;8.018;2024-01-30T00:15:01;5.50;99.90
6988;DHT22;3534;49.960;8.018;2024-01-30T00:17:29;5.40;99.90
6988;DHT22;3534;49.960;8.018;2024-01-30T00:19:56;5.40;99.90
6988;DHT22;3534;49.960;8.018;2024-01-30T00:22:23;5.40;99.90
6988;DHT22;3534;49.960;8.018;2024-01-30T00:24:51;5.40;99.90
6988;DHT22;3534;49.960;8.018;2024-01-30T00:27:17;5.40;99.90
6988;DHT22;3534;49.960;8.018;2024-01-30T00:29:44;5.40;99.90
6988;DHT22;3534;49.960;8.018;2024-01-30T00:32:11;5.40;99.90
6988;DHT22;3534;49.960;8.018;2024-01-30T00:34:37;5.40;99.90
6988;DHT22;3534;49.960;8.018;2024-01-30T00:37:04;5.40;99.90
6988;DHT22;3534;49.960;8.018;2024-01-30T00:39:31;5.40;99.90
6988;DHT22;3534;49.960;8.018;2024-01-30T00:41:59;5.40;99.90
6988;DHT22;3534;49.960;8.018;2024-01-30T00:44:25;5.40;99.90
6988;DHT22;3534;49.960;8.018;2024-01-30T00:46:52;5.40;99.90
6988;DHT22;3534;49.960;8.018;2024-01-30T00:49:18;5.40;99.90
6988;DHT22;3534;49.960;8.018;2024-01-30T00:51:45;5.40;99.90
6988;DHT22;3534;49.960;8.018;2024-01-30T00:54:12;5.30;99.90
6988;DHT22;3534;49.960;8.018;2024-01-30T00:56:39;5.30;99.90
6988;DHT22;3534;49.960;8.018;2024-01-30T00:59:07;5.10;99.90
6988;DHT22;3534;49.960;8.018;2024-01-30T01:01:33;5.20;99.90
6988;DHT22;3534;49.960;8.018;2024-01-30T01:04:00;5.10;99.90
6988;DHT22;3534;49.960;8.018;2024-01-30T01:06:27;5.10;99.90
6988;DHT22;3534;49.960;8.018;2024-01-30T01:08:54;5.10;99.90
6988;DHT22;3534;49.960;8.018;2024-01-30T01:11:21;5.10;99.90
6988;DHT22;3534;49.960;8.018;2024-01-30T01:13:48;5.10;99.90
6988;DHT22;3534;49.960;8.018;2024-01-30T01:16:16;5.00;99.90
6988;DHT22;3534;49.960;8.018;2024-01-30T01:18:42;5.10;99.90
6988;DHT22;3534;49.960;8.018;2024-01-30T01:21:09;5.10;99.90
6988;DHT22;3534;49.960;8.018;2024-01-30T01:23:36;5.10;99.90
6988;DHT22;3534;49.960;8.018;2024-01-30T01:26:02;5.20;99.90
6988;DHT22;3534;49.960;8.018;2024-01-30T01:28:29;5.20;99.90
6988;DHT22;3534;49.960;8.018;2024-01-30T01:30:56;5.20;99.90
6988;DHT22;3534;49.960;8.018;2024-01-30T01:33:31;5.20;99.90
6988;DHT22;3534;49.960;8.018;2024-01-30T01:35:58;5.20;99.90
6988;DHT22;3534;49.960;8.018;2024-01-30T01:38:25;5.20;99.90
6988;DHT22;3534;49.960;8.018;2024-01-30T01:40:52;5.20;99.90
6988;DHT22;3534;49.960;8.018;2024-01-30T01:43:18;5.20;99.90
6988;DHT22;3534;49.960;8.018;2024-01-30T01:45:45;5.20;99.90
6988;DHT22;3534;49.960;8.018;2024-01-30T01:48:12;5.10;99.90
6988;DHT22;3534;49.960;8.018;2024-01-30T01:50:41;5.10;99.90
6988;DHT22;3534;49.960;8.018;2024-01-30T01:53:09;5.10;99.90
6988;DHT22;3534;49.960;8.018;2024-01-30T01:55:35;5.10;99.90
6988;DHT22;3534;49.960;8.018;2024-01-30T01:58:03;5.10;99.90
6988;DHT22;3534;49.960;8.018;2024-01-30T02:00:30;5.10;99.90
6988;DHT22;3534;49.960;8.018;2024-01-30T02:02:58;5.10;99.90
6988;DHT22;3534;49.960;8.018;2024-01-30T02:05:26;5.10;99.90
6988;DHT22;3534;49.960;8.018;2024-01-30T02:07:54;5.00;99.90
6988;DHT22;3534;49.960;8.018;2024-01-30T02:10:21;5.00;99.90
6988;DHT22;3534;49.960;8.018;2024-01-30T02:12:48;5.00;99.90
6988;DHT22;3534;49.960;8.018;2024-01-30T02:15:15;5.00;99.90
6988;DHT22;3534;49.960;8.018;2024-01-30T02:17:42;5.00;99.90
6988;DHT22;3534;49.960;8.018;2024-01-30T02:20:09;4.90;99.90
6988;DHT22;3534;49.960;8.018;2024-01-30T02:22:38;4.90;99.90
6988;DHT22;3534;49.960;8.018;2024-01-30T02:25:07;4.90;99.90
6988;DHT22;3534;49.960;8.018;2024-01-30T02:27:33;4.90;99.90
6988;DHT22;3534;49.960;8.018;2024-01-30T02:30:00;4.90;99.90
6988;DHT22;3534;49.960;8.018;2024-01-30T02:32:27;4.90;99.90
6988;DHT22;3534;49.960;8.018;2024-01-30T02:34:53;4.90;99.90
6988;DHT22;3534;49.960;8.018;2024-01-30T02:37:20;4.90;99.90
6988;DHT22;3534;49.960;8.018;2024-01-30T02:39:48;4.80;99.90
6988;DHT22;3534;49.960;8.018;2024-01-30T02:42:15;4.70;99.90
6988;DHT22;3534;49.960;8.018;2024-01-30T02:44:41;4.70;99.90
6988;DHT22;3534;49.960;8.018;2024-01-30T02:47:08;4.70;99.90
6988;DHT22;3534;49.960;8.018;2024-01-30T02:49:35;4.70;99.90
6988;DHT22;3534;49.960;8.018;2024-01-30T02:52:01;4.70;99.90
6988;DHT22;3534;49.960;8.018;2024-01-30T02:54:28;4.70;99.90
6988;DHT22;3534;49.960;8.018;2024-01-30T02:56:57;4.70;99.90
6988;DHT22;3534;49.960;8.018;2024-01-30T02:59:24;4.70;99.90
6988;DHT22;3534;49.960;8.018;2024-01-30T03:01:50;4.70;99.90
6988;DHT22;3534;49.960;8.018;2024-01-30T03:04:17;4.70;99.90
6988;DHT22;3534;49.960;8.018;2024-01-30T03:06:45;4.70;99.90
6988;DHT22;3534;49.960;8.018;2024-01-30T03:09:12;4.70;99.90
6988;DHT22;3534;49.960;8.018;2024-01-30T03:11:39;4.70;99.90
6988;DHT22;3534;49.960;8.018;2024-01-30T03:14:07;4.70;99.90
6988;DHT22;3534;49.960;8.018;2024-01-30T03:16:36;4.70;99.90
6988;DHT22;3534;49.960;8.018;2024-01-30T03:19:03;4.60;99.90
6988;DHT22;3534;49.960;8.018;2024-01-30T03:21:30;4.60;99.90
6988;DHT22;3534;49.960;8.018;2024-01-30T03:23:57;4.60;99.90
6988;DHT22;3534;49.960;8.018;2024-01-30T03:26:23;4.50;99.90
6988;DHT22;3534;49.960;8.018;2024-01-30T03:28:50;4.50;99.90
6988;DHT22;3534;49.960;8.018;2024-01-30T03:31:18;4.50;99.90
6988;DHT22;3534;49.960;8.018;2024-01-30T03:33:45;4.50;99.90
6988;DHT22;3534;49.960;8.018;2024-01-30T03:36:11;4.50;99.90
6988;DHT22;3534;49.960;8.018;2024-01-30T03:38:38;4.50;99.90
6988;DHT22;3534;49.960;8.018;2024-01-30T03:41:07;4.50;99.90
6988;DHT22;3534;49.960;8.018;2024-01-30T03:43:34;4.50;99.90
6988;DHT22;3534;49.960;8.018;2024-01-30T03:46:01;4.50;99.90
6988;DHT22;3534;49.960;8.018;2024-01-30T03:48:29;4.60;99.90
6988;DHT22;3534;49.960;8.018;2024-01-30T03:50:56;4.60;99.90
6988;DHT22;3534;49.960;8.018;2024-01-30T03:53:23;4.60;99.90
6988;DHT22;3534;49.960;8.018;2024-01-30T03:55:49;4.60;99.90
6988;DHT22;3534;49.960;8.018;2024-01-30T03:58:16;4.60;99.90
6988;DHT22;3534;49.960;8.018;2024-01-30T04:00:43;4.60;99.90
6988;DHT22;3534;49.960;8.018;2024-01-30T04:03:10;4.60;99.90
6988;DHT22;3534;49.960;8.018;2024-01-30T04:05:38;4.60;99.90
6988;DHT22;3534;49.960;8.018;2024-01-30T04:08:05;4.60;99.90
6988;DHT22;3534;49.960;8.018;2024-01-30T04:10:31;4.50;99.90
6988;DHT22;3534;49.960;8.018;2024-01-30T04:12:58;4.50;99.90
6988;DHT22;3534;49.960;8.018;2024-01-30T04:15:25;4.50;99.90
6988;DHT22;3534;49.960;8.018;2024-01-30T04:17:52;4.50;99.90
6988;DHT22;3534;49.960;8.018;2024-01-30T04:20:19;4.50;99.90
6988;DHT22;3534;49.960;8.018;2024-01-30T04:22:47;4.50;99.90
6988;DHT22;3534;49.960;8.018;2024-01-30T04:25:14;4.50;99.90
6988;DHT22;3534;49.960;8.018;2024-01-30T04:27:40;4.50;99.90
6988;DHT22;3534;49.960;8.018;2024-01-30T04:30:08;4.50;99.90
6988;DHT22;3534;49.960;8.018;2024-01-30T04:32:35;4.50;99.90
6988;DHT22;3534;49.960;8.018;2024-01-30T04:35:02;4.50;99.90
6988;DHT22;3534;49.960;8.018;2024-01-30T04:37:30;4.50;99.90
6988;DHT22;3534;49.960;8.018;2024-01-30T04:39:58;4.50;99.90
6988;DHT22;3534;49.960;8.018;2024-01-30T04:42:25;4.40;99.90
6988;DHT22;3534;49.960;8.018;2024-01-30T04:44:51;4.40;99.90
6988;DHT22;3534;49.960;8.018;2024-01-30T04:47:18;4.40;99.90
6988;DHT22;3534;49.960;8.018;2024-01-30T04:49:45;4.30;99.90
6988;DHT22;3534;49.960;8.018;2024-01-30T04:52:11;4.30;99.90
6988;DHT22;3534;49.960;8.018;2024-01-30T04:54:38;4.20;99.90
6988;DHT22;3534;49.960;8.018;2024-01-30T04:57:06;4.30;99.90
6988;DHT22;3534;49.960;8.018;2024-01-30T04:59:37;4.30;99.90
6988;DHT22;3534;49.960;8.018;2024-01-30T05:02:04;4.30;99.90
6988;DHT22;3534;49.960;8.018;2024-01-30T05:04:30;4.30;99.90
6988;DHT22;3534;49.960;8.018;2024-01-30T05:06:57;4.30;99.90
6988;DHT22;3534;49.960;8.018;2024-01-30T05:09:24;4.30;99.90
6988;DHT22;3534;49.960;8.018;2024-01-30T05:11:50;4.30;99.90
6988;DHT22;3534;49.960;8.018;2024-01-30T05:14:18;4.40;99.90
6988;DHT22;3534;49.960;8.018;2024-01-30T05:16:45;4.40;99.90
6988;DHT22;3534;49.960;8.018;2024-01-30T05:19:13;4.40;99.90
6988;DHT22;3534;49.960;8.018;2024-01-30T05:21:40;4.40;99.90
6988;DHT22;3534;49.960;8.018;2024-01-30T05:24:07;4.40;99.90
6988;DHT22;3534;49.960;8.018;2024-01-30T05:26:35;4.40;99.90
6988;DHT22;3534;49.960;8.018;2024-01-30T05:29:02;4.40;99.90
6988;DHT22;3534;49.960;8.018;2024-01-30T05:31:30;4.40;99.90
6988;DHT22;3534;49.960;8.018;2024-01-30T05:33:57;4.40;99.90
6988;DHT22;3534;49.960;8.018;2024-01-30T05:36:23;4.30;99.90
6988;DHT22;3534;49.960;8.018;2024-01-30T05:38:50;4.40;99.90
6988;DHT22;3534;49.960;8.018;2024-01-30T05:41:17;4.30;99.90
6988;DHT22;3534;49.960;8.018;2024-01-30T05:43:43;4.30;99.90
6988;DHT22;3534;49.960;8.018;2024-01-30T05:46:10;4.30;99.90
6988;DHT22;3534;49.960;8.018;2024-01-30T05:48:38;4.30;99.90
6988;DHT22;3534;49.960;8.018;2024-01-30T05:51:06;4.30;99.90
6988;DHT22;3534;49.960;8.018;2024-01-30T05:53:33;4.30;99.90
6988;DHT22;3534;49.960;8.018;2024-01-30T05:56:01;4.20;99.90
6988;DHT22;3534;49.960;8.018;2024-01-30T05:58:28;4.20;99.90
6988;DHT22;3534;49.960;8.018;2024-01-30T06:00:56;4.20;99.90
6988;DHT22;3534;49.960;8.018;2024-01-30T06:03:23;4.30;99.90
6988;DHT22;3534;49.960;8.018;2024-01-30T06:05:51;4.30;99.90
6988;DHT22;3534;49.960;8.018;2024-01-30T06:08:18;4.30;99.90
6988;DHT22;3534;49.960;8.018;2024-01-30T06:10:44;4.30;99.90
6988;DHT22;3534;49.960;8.018;2024-01-30T06:13:11;4.20;99.90
6988;DHT22;3534;49.960;8.018;2024-01-30T06:15:38;4.20;99.90
6988;DHT22;3534;49.960;8.018;2024-01-30T06:18:05;4.20;99.90
6988;DHT22;3534;49.960;8.018;2024-01-30T06:20:31;4.20;99.90
6988;DHT22;3534;49.960;8.018;2024-01-30T06:22:59;4.20;99.90
6988;DHT22;3534;49.960;8.018;2024-01-30T06:25:26;4.20;99.90
6988;DHT22;3534;49.960;8.018;2024-01-30T06:27:53;4.20;99.90
6988;DHT22;3534;49.960;8.018;2024-01-30T06:30:19;4.20;99.90
6988;DHT22;3534;49.960;8.018;2024-01-30T06:32:46;4.20;99.90
6988;DHT22;3534;49.960;8.018;2024-01-30T06:35:13;4.20;99.90
6988;DHT22;3534;49.960;8.018;2024-01-30T06:37:39;4.20;99.90
6988;DHT22;3534;49.960;8.018;2024-01-30T06:40:08;4.20;99.90
6988;DHT22;3534;49.960;8.018;2024-01-30T06:42:35;4.20;99.90
6988;DHT22;3534;49.960;8.018;2024-01-30T06:45:02;4.10;99.90
6988;DHT22;3534;49.960;8.018;2024-01-30T06:47:29;4.10;99.90
6988;DHT22;3534;49.960;8.018;2024-01-30T06:49:56;4.10;99.90
6988;DHT22;3534;49.960;8.018;2024-01-30T06:52:23;4.10;99.90
6988;DHT22;3534;49.960;8.018;2024-01-30T06:54:49;4.10;99.90
6988;DHT22;3534;49.960;8.018;2024-01-30T06:57:17;4.10;99.90
6988;DHT22;3534;49.960;8.018;2024-01-30T06:59:44;4.10;99.90
6988;DHT22;3534;49.960;8.018;2024-01-30T07:02:11;4.10;99.90
6988;DHT22;3534;49.960;8.018;2024-01-30T07:04:37;4.20;99.90
6988;DHT22;3534;49.960;8.018;2024-01-30T07:07:04;4.20;99.90
6988;DHT22;3534;49.960;8.018;2024-01-30T07:09:37;4.10;99.90
6988;DHT22;3534;49.960;8.018;2024-01-30T07:12:04;4.10;99.90
6988;DHT22;3534;49.960;8.018;2024-01-30T07:14:32;4.20;99.90
6988;DHT22;3534;49.960;8.018;2024-01-30T07:16:59;4.20;99.90
6988;DHT22;3534;49.960;8.018;2024-01-30T07:19:26;4.10;99.90
6988;DHT22;3534;49.960;8.018;2024-01-30T07:21:52;4.20;99.90
6988;DHT22;3534;49.960;8.018;2024-01-30T07:24:19;4.20;99.90
6988;DHT22;3534;49.960;8.018;2024-01-30T07:26:46;4.10;99.90
6988;DHT22;3534;49.960;8.018;2024-01-30T07:29:12;4.10;99.90
6988;DHT22;3534;49.960;8.018;2024-01-30T07:31:40;4.10;99.90
6988;DHT22;3534;49.960;8.018;2024-01-30T07:34:07;4.20;99.90
6988;DHT22;3534;49.960;8.018;2024-01-30T07:36:34;4.10;99.90
6988;DHT22;3534;49.960;8.018;2024-01-30T07:39:00;4.20;99.90
6988;DHT22;3534;49.960;8.018;2024-01-30T07:41:27;4.10;99.90
6988;DHT22;3534;49.960;8.018;2024-01-30T07:43:54;4.10;99.90
6988;DHT22;3534;49.960;8.018;2024-01-30T07:46:20;4.10;99.90
6988;DHT22;3534;49.960;8.018;2024-01-30T07:48:48;4.10;99.90
6988;DHT22;3534;49.960;8.018;2024-01-30T07:51:15;4.10;99.90
6988;DHT22;3534;49.960;8.018;2024-01-30T07:53:42;4.10;99.90
6988;DHT22;3534;49.960;8.018;2024-01-30T07:56:08;4.10;99.90
6988;DHT22;3534;49.960;8.018;2024-01-30T07:58:35;4.10;99.90
6988;DHT22;3534;49.960;8.018;2024-01-30T08:01:02;4.10;99.90
6988;DHT22;3534;49.960;8.018;2024-01-30T08:03:28;4.10;99.90
6988;DHT22;3534;49.960;8.018;2024-01-30T08:05:56;4.10;99.90
6988;DHT22;3534;49.960;8.018;2024-01-30T08:08:23;4.10;99.90
6988;DHT22;3534;49.960;8.018;2024-01-30T08:10:51;4.20;99.90
6988;DHT22;3534;49.960;8.018;2024-01-30T08:13:17;4.20;99.90
6988;DHT22;3534;49.960;8.018;2024-01-30T08:15:44;4.30;99.90
6988;DHT22;3534;49.960;8.018;2024-01-30T08:18:11;4.30;99.90
6988;DHT22;3534;49.960;8.018;2024-01-30T08:20:37;4.40;99.90
6988;DHT22;3534;49.960;8.018;2024-01-30T08:23:05;4.40;99.90
6988;DHT22;3534;49.960;8.018;2024-01-30T08:25:32;4.50;99.90
6988;DHT22;3534;49.960;8.018;2024-01-30T08:27:59;4.50;99.90
6988;DHT22;3534;49.960;8.018;2024-01-30T08:30:25;4.60;99.90
6988;DHT22;3534;49.960;8.018;2024-01-30T08:32:52;4.60;99.90
6988;DHT22;3534;49.960;8.018;2024-01-30T08:35:19;4.60;99.90
6988;DHT22;3534;49.960;8.018;2024-01-30T08:37:45;4.60;99.90
6988;DHT22;3534;49.960;8.018;2024-01-30T08:40:14;4.70;99.90
6988;DHT22;3534;49.960;8.018;2024-01-30T08:42:40;4.60;99.90
6988;DHT22;3534;49.960;8.018;2024-01-30T08:45:08;4.60;99.90
6988;DHT22;3534;49.960;8.018;2024-01-30T08:47:35;4.70;99.90
6988;DHT22;3534;49.960;8.018;2024-01-30T08:50:01;4.70;99.90
6988;DHT22;3534;49.960;8.018;2024-01-30T08:52:28;4.70;99.90
6988;DHT22;3534;49.960;8.018;2024-01-30T08:54:55;4.70;99.90
6988;DHT22;3534;49.960;8.018;2024-01-30T08:57:23;4.80;99.90
6988;DHT22;3534;49.960;8.018;2024-01-30T08:59:49;4.90;99.90
6988;DHT22;3534;49.960;8.018;2024-01-30T09:02:16;4.90;99.90
6988;DHT22;3534;49.960;8.018;2024-01-30T09:04:43;4.90;99.90
6988;DHT22;3534;49.960;8.018;2024-01-30T09:07:10;4.90;99.90
6988;DHT22;3534;49.960;8.018;2024-01-30T09:09:38;5.00;99.90
6988;DHT22;3534;49.960;8.018;2024-01-30T09:12:07;5.00;99.90
6988;DHT22;3534;49.960;8.018;2024-01-30T09:14:36;5.00;99.90
6988;DHT22;3534;49.960;8.018;2024-01-30T09:17:03;5.10;99.90
6988;DHT22;3534;49.960;8.018;2024-01-30T09:19:30;5.10;99.90
6988;DHT22;3534;49.960;8.018;2024-01-30T09:21:57;5.20;99.90
6988;DHT22;3534;49.960;8.018;2024-01-30T09:24:24;5.20;99.90
6988;DHT22;3534;49.960;8.018;2024-01-30T09:26:51;5.20;99.90
6988;DHT22;3534;49.960;8.018;2024-01-30T09:29:18;5.20;99.90
6988;DHT22;3534;49.960;8.018;2024-01-30T09:31:46;5.20;99.90
6988;DHT22;3534;49.960;8.018;2024-01-30T09:34:13;5.20;99.90
6988;DHT22;3534;49.960;8.018;2024-01-30T09:36:39;5.30;99.90
6988;DHT22;3534;49.960;8.018;2024-01-30T09:39:06;5.30;99.90
6988;DHT22;3534;49.960;8.018;2024-01-30T09:41:33;5.40;99.90
6988;DHT22;3534;49.960;8.018;2024-01-30T09:44:04;5.40;99.90
6988;DHT22;3534;49.960;8.018;2024-01-30T09:46:32;5.50;99.90
6988;DHT22;3534;49.960;8.018;2024-01-30T09:49:01;5.60;99.90
6988;DHT22;3534;49.960;8.018;2024-01-30T09:51:29;5.60;99.90
6988;DHT22;3534;49.960;8.018;2024-01-30T09:53:56;5.70;99.90
6988;DHT22;3534;49.960;8.018;2024-01-30T09:56:23;5.80;99.90
6988;DHT22;3534;49.960;8.018;2024-01-30T09:58:50;5.90;99.90
6988;DHT22;3534;49.960;8.018;2024-01-30T10:01:17;6.00;99.90
6988;DHT22;3534;49.960;8.018;2024-01-30T10:03:45;5.90;99.90
6988;DHT22;3534;49.960;8.018;2024-01-30T10:06:13;6.00;99.90
6988;DHT22;3534;49.960;8.018;2024-01-30T10:08:42;6.00;99.90
6988;DHT22;3534;49.960;8.018;2024-01-30T10:11:09;6.00;99.90
6988;DHT22;3534;49.960;8.018;2024-01-30T10:13:36;6.00;99.90
6988;DHT22;3534;49.960;8.018;2024-01-30T10:16:02;6.00;99.90
6988;DHT22;3534;49.960;8.018;2024-01-30T10:18:31;6.00;99.90
6988;DHT22;3534;49.960;8.018;2024-01-30T10:20:59;5.80;99.90
6988;DHT22;3534;49.960;8.018;2024-01-30T10:23:27;5.80;99.90
6988;DHT22;3534;49.960;8.018;2024-01-30T10:25:54;5.70;99.90
6988;DHT22;3534;49.960;8.018;2024-01-30T10:28:20;5.60;99.90
6988;DHT22;3534;49.960;8.018;2024-01-30T10:30:57;5.50;99.90
6988;DHT22;3534;49.960;8.018;2024-01-30T10:33:25;5.50;99.90
6988;DHT22;3534;49.960;8.018;2024-01-30T10:35:54;5.50;99.90
6988;DHT22;3534;49.960;8.018;2024-01-30T10:38:22;5.40;99.90
6988;DHT22;3534;49.960;8.018;2024-01-30T10:40:54;5.40;99.90
6988;DHT22;3534;49.960;8.018;2024-01-30T10:43:23;5.40;99.90
6988;DHT22;3534;49.960;8.018;2024-01-30T10:45:53;5.50;99.90
6988;DHT22;3534;49.960;8.018;2024-01-30T10:48:26;5.70;99.90
6988;DHT22;3534;49.960;8.018;2024-01-30T10:50:57;5.80;99.90
6988;DHT22;3534;49.960;8.018;2024-01-30T10:53:26;5.90;99.90
6988;DHT22;3534;49.960;8.018;2024-01-30T10:55:55;6.00;99.90
6988;DHT22;3534;49.960;8.018;2024-01-30T10:58:22;6.00;99.90
6988;DHT22;3534;49.960;8.018;2024-01-30T11:00:49;6.00;99.90
6988;DHT22;3534;49.960;8.018;2024-01-30T11:03:17;6.10;99.90
6988;DHT22;3534;49.960;8.018;2024-01-30T11:05:49;6.20;99.90
6988;DHT22;3534;49.960;8.018;2024-01-30T11:08:23;6.30;99.90
6988;DHT22;3534;49.960;8.018;2024-01-30T11:10:56;6.40;99.90
6988;DHT22;3534;49.960;8.018;2024-01-30T11:13:27;6.50;99.90
6988;DHT22;3534;49.960;8.018;2024-01-30T11:15:54;6.50;99.90
6988;DHT22;3534;49.960;8.018;2024-01-30T11:18:25;6.50;99.90
6988;DHT22;3534;49.960;8.018;2024-01-30T11:20:52;6.50;99.90
6988;DHT22;3534;49.960;8.018;2024-01-30T11:23:18;6.50;99.90
6988;DHT22;3534;49.960;8.018;2024-01-30T11:25:48;6.60;99.90
6988;DHT22;3534;49.960;8.018;2024-01-30T11:28:16;6.60;99.90
6988;DHT22;3534;49.960;8.018;2024-01-30T11:30:44;6.50;99.90
6988;DHT22;3534;49.960;8.018;2024-01-30T11:33:13;6.40;99.90
6988;DHT22;3534;49.960;8.018;2024-01-30T11:35:41;6.30;99.90
6988;DHT22;3534;49.960;8.018;2024-01-30T11:38:09;6.40;99.90
6988;DHT22;3534;49.960;8.018;2024-01-30T11:40:37;6.50;99.90
6988;DHT22;3534;49.960;8.018;2024-01-30T11:43:06;6.60;99.90
6988;DHT22;3534;49.960;8.018;2024-01-30T11:45:35;6.80;99.90
6988;DHT22;3534;49.960;8.018;2024-01-30T11:48:02;6.80;99.90
6988;DHT22;3534;49.960;8.018;2024-01-30T11:50:29;6.70;99.90
6988;DHT22;3534;49.960;8.018;2024-01-30T11:52:56;6.70;99.90
6988;DHT22;3534;49.960;8.018;2024-01-30T11:55:24;6.80;99.90
6988;DHT22;3534;49.960;8.018;2024-01-30T11:57:51;6.90;99.90
6988;DHT22;3534;49.960;8.018;2024-01-30T12:00:21;7.00;99.90
6988;DHT22;3534;49.960;8.018;2024-01-30T12:02:51;7.20;99.90
6988;DHT22;3534;49.960;8.018;2024-01-30T12:05:21;7.30;99.90
6988;DHT22;3534;49.960;8.018;2024-01-30T12:07:48;7.50;99.90
6988;DHT22;3534;49.960;8.018;2024-01-30T12:10:15;7.60;99.90
6988;DHT22;3534;49.960;8.018;2024-01-30T12:12:45;7.70;99.90
6988;DHT22;3534;49.960;8.018;2024-01-30T12:15:12;7.70;99.90
6988;DHT22;3534;49.960;8.018;2024-01-30T12:17:40;7.70;99.90
6988;DHT22;3534;49.960;8.018;2024-01-30T12:20:10;7.70;99.90
6988;DHT22;3534;49.960;8.018;2024-01-30T12:22:38;7.80;99.90
6988;DHT22;3534;49.960;8.018;2024-01-30T12:25:07;8.00;99.90
6988;DHT22;3534;49.960;8.018;2024-01-30T12:27:33;7.90;99.90
6988;DHT22;3534;49.960;8.018;2024-01-30T12:30:00;7.90;99.90
6988;DHT22;3534;49.960;8.018;2024-01-30T12:32:28;7.80;99.90
6988;DHT22;3534;49.960;8.018;2024-01-30T12:34:55;7.90;99.90
6988;DHT22;3534;49.960;8.018;2024-01-30T12:37:24;8.00;99.90
6988;DHT22;3534;49.960;8.018;2024-01-30T12:39:52;8.10;99.90
6988;DHT22;3534;49.960;8.018;2024-01-30T12:42:20;8.30;99.90
6988;DHT22;3534;49.960;8.018;2024-01-30T12:44:48;8.50;99.90
6988;DHT22;3534;49.960;8.018;2024-01-30T12:47:14;8.60;99.90
6988;DHT22;3534;49.960;8.018;2024-01-30T12:49:42;8.70;99.90
6988;DHT22;3534;49.960;8.018;2024-01-30T12:52:09;8.80;99.90
6988;DHT22;3534;49.960;8.018;2024-01-30T12:54:37;8.80;99.90
6988;DHT22;3534;49.960;8.018;2024-01-30T12:57:04;8.80;99.90
6988;DHT22;3534;49.960;8.018;2024-01-30T12:59:31;8.90;99.90
6988;DHT22;3534;49.960;8.018;2024-01-30T13:02:00;8.90;99.90
6988;DHT22;3534;49.960;8.018;2024-01-30T13:04:28;8.90;99.90
6988;DHT22;3534;49.960;8.018;2024-01-30T13:06:55;9.00;99.90
6988;DHT22;3534;49.960;8.018;2024-01-30T13:09:23;9.00;99.90
6988;DHT22;3534;49.960;8.018;2024-01-30T13:11:51;9.10;99.90
6988;DHT22;3534;49.960;8.018;2024-01-30T13:14:18;9.20;99.90
6988;DHT22;3534;49.960;8.018;2024-01-30T13:16:44;9.30;99.90
6988;DHT22;3534;49.960;8.018;2024-01-30T13:19:11;9.40;99.90
6988;DHT22;3534;49.960;8.018;2024-01-30T13:21:38;9.50;99.90
6988;DHT22;3534;49.960;8.018;2024-01-30T13:24:06;9.50;99.90
6988;DHT22;3534;49.960;8.018;2024-01-30T13:26:32;9.50;99.90
6988;DHT22;3534;49.960;8.018;2024-01-30T13:29:00;9.60;99.90
6988;DHT22;3534;49.960;8.018;2024-01-30T13:31:27;9.60;99.90
6988;DHT22;3534;49.960;8.018;2024-01-30T13:33:54;9.60;99.90
6988;DHT22;3534;49.960;8.018;2024-01-30T13:36:21;9.60;99.90
6988;DHT22;3534;49.960;8.018;2024-01-30T13:38:48;9.70;99.90
6988;DHT22;3534;49.960;8.018;2024-01-30T13:41:15;9.70;99.90
6988;DHT22;3534;49.960;8.018;2024-01-30T13:43:42;9.70;99.90
6988;DHT22;3534;49.960;8.018;2024-01-30T13:46:11;9.70;99.90
6988;DHT22;3534;49.960;8.018;2024-01-30T13:48:37;9.70;99.90
6988;DHT22;3534;49.960;8.018;2024-01-30T13:51:04;9.70;99.90
6988;DHT22;3534;49.960;8.018;2024-01-30T13:53:31;9.70;99.90
6988;DHT22;3534;49.960;8.018;2024-01-30T13:55:58;9.60;99.90
6988;DHT22;3534;49.960;8.018;2024-01-30T13:58:25;9.60;99.90
6988;DHT22;3534;49.960;8.018;2024-01-30T14:00:52;9.60;99.90
6988;DHT22;3534;49.960;8.018;2024-01-30T14:03:20;9.70;99.90
6988;DHT22;3534;49.960;8.018;2024-01-30T14:05:47;9.70;99.90
6988;DHT22;3534;49.960;8.018;2024-01-30T14:08:14;9.70;99.90
6988;DHT22;3534;49.960;8.018;2024-01-30T14:10:41;9.70;99.90
6988;DHT22;3534;49.960;8.018;2024-01-30T14:13:08;9.70;99.90
6988;DHT22;3534;49.960;8.018;2024-01-30T14:15:35;9.70;99.90
6988;DHT22;3534;49.960;8.018;2024-01-30T14:18:02;9.70;99.90
6988;DHT22;3534;49.960;8.018;2024-01-30T14:20:30;9.70;99.90
6988;DHT22;3534;49.960;8.018;2024-01-30T14:22:57;9.70;99.90
6988;DHT22;3534;49.960;8.018;2024-01-30T14:25:24;9.70;99.90
6988;DHT22;3534;49.960;8.018;2024-01-30T14:27:51;9.70;99.90
6988;DHT22;3534;49.960;8.018;2024-01-30T14:30:18;9.70;99.90
6988;DHT22;3534;49.960;8.018;2024-01-30T14:32:45;9.70;99.90
6988;DHT22;3534;49.960;8.018;2024-01-30T14:35:12;9.70;99.90
6988;DHT22;3534;49.960;8.018;2024-01-30T14:37:40;9.70;99.90
6988;DHT22;3534;49.960;8.018;2024-01-30T14:40:08;9.70;99.90
6988;DHT22;3534;49.960;8.018;2024-01-30T14:42:35;9.70;99.90
6988;DHT22;3534;49.960;8.018;2024-01-30T14:45:03;9.60;99.90
6988;DHT22;3534;49.960;8.018;2024-01-30T14:47:30;9.70;99.90
6988;DHT22;3534;49.960;8.018;2024-01-30T14:49:57;9.60;99.90
6988;DHT22;3534;49.960;8.018;2024-01-30T14:52:24;9.70;99.90
6988;DHT22;3534;49.960;8.018;2024-01-30T14:54:52;9.70;99.90
6988;DHT22;3534;49.960;8.018;2024-01-30T14:57:19;9.70;99.90
6988;DHT22;3534;49.960;8.018;2024-01-30T14:59:45;9.60;99.90
6988;DHT22;3534;49.960;8.018;2024-01-30T15:02:13;9.60;99.90
6988;DHT22;3534;49.960;8.018;2024-01-30T15:04:40;9.60;99.90
6988;DHT22;3534;49.960;8.018;2024-01-30T15:07:07;9.60;99.90
6988;DHT22;3534;49.960;8.018;2024-01-30T15:09:34;9.60;99.90
6988;DHT22;3534;49.960;8.018;2024-01-30T15:12:02;9.60;99.90
6988;DHT22;3534;49.960;8.018;2024-01-30T15:14:29;9.60;99.90
6988;DHT22;3534;49.960;8.018;2024-01-30T15:16:56;9.50;99.90
6988;DHT22;3534;49.960;8.018;2024-01-30T15:19:22;9.50;99.90
6988;DHT22;3534;49.960;8.018;2024-01-30T15:21:49;9.50;99.90
6988;DHT22;3534;49.960;8.018;2024-01-30T15:24:16;9.50;99.90
6988;DHT22;3534;49.960;8.018;2024-01-30T15:26:43;9.50;99.90
6988;DHT22;3534;49.960;8.018;2024-01-30T15:29:11;9.50;99.90
6988;DHT22;3534;49.960;8.018;2024-01-30T15:31:38;9.50;99.90
6988;DHT22;3534;49.960;8.018;2024-01-30T15:34:05;9.50;99.90
6988;DHT22;3534;49.960;8.018;2024-01-30T15:36:31;9.60;99.90
6988;DHT22;3534;49.960;8.018;2024-01-30T15:38:58;9.50;99.90
6988;DHT22;3534;49.960;8.018;2024-01-30T15:41:25;9.50;99.90
6988;DHT22;3534;49.960;8.018;2024-01-30T15:43:51;9.50;99.90
6988;DHT22;3534;49.960;8.018;2024-01-30T15:46:19;9.50;99.90
6988;DHT22;3534;49.960;8.018;2024-01-30T15:48:46;9.50;99.90
6988;DHT22;3534;49.960;8.018;2024-01-30T15:51:13;9.50;99.90
6988;DHT22;3534;49.960;8.018;2024-01-30T15:53:40;9.50;99.90
6988;DHT22;3534;49.960;8.018;2024-01-30T15:56:07;9.50;99.90
6988;DHT22;3534;49.960;8.018;2024-01-30T15:58:33;9.50;99.90
6988;DHT22;3534;49.960;8.018;2024-01-30T16:01:00;9.50;99.90
6988;DHT22;3534;49.960;8.018;2024-01-30T16:03:28;9.50;99.90
6988;DHT22;3534;49.960;8.018;2024-01-30T16:05:55;9.50;99.90
6988;DHT22;3534;49.960;8.018;2024-01-30T16:08:22;9.50;99.90
6988;DHT22;3534;49.960;8.018;2024-01-30T16:10:49;9.50;99.90
6988;DHT22;3534;49.960;8.018;2024-01-30T16:13:15;9.50;99.90
6988;DHT22;3534;49.960;8.018;2024-01-30T16:15:42;9.50;99.90